Terminal Aerodrome Forecast
Issued by NWS

Home | Current Version | Previous Version | Text Only | Print | Product List | Glossary On
Versions: 1 2 3 4 5 6 7 8 9 10 11
379
FTUS42 KJAX 231000 AAB
TAFCRG
TAF AMD
KCRG 231000Z 2310/2406 18003KT P6SM BKN070
      TEMPO 2310/2312 2SM BR
     FM231400 21007KT P6SM BKN050
     FM231700 15011KT P6SM VCTS BKN040CB
     FM232300 17008KT P6SM VCSH BKN035=

USA.gov is the U.S. government's official web portal to all federal, state and local government web resources and services.